Time;durP1;ratioP1;P1;durP2;ratioP2;P2;SDS_P1;SDS_P2;PMS_P1;PMS_P2;Temp;Humidity;BMP_temperature;BMP_pressure;BME280_temperature;BME280_humidity;BME280_pressure;Samples;Min_cycle;Max_cycle;Signal;HPM_P1;HPM_P2
2021/07/30 00:00:06;;;;;;;37.60;25.27;;;23.60;99.90;;;;;;5033283;28;20032;-75
2021/07/30 00:02:33;;;;;;;73.68;46.42;;;23.60;99.90;;;;;;5050986;28;20118;-75
2021/07/30 00:04:59;;;;;;;41.92;27.27;;;23.60;99.90;;;;;;5033154;28;20510;-75
2021/07/30 00:07:26;;;;;;;29.52;20.50;;;23.60;99.90;;;;;;5050789;28;21432;-75
2021/07/30 00:09:52;;;;;;;11.65;10.05;;;23.70;99.90;;;;;;5050961;28;20020;-75
2021/07/30 00:12:18;;;;;;;15.35;8.73;;;23.70;99.90;;;;;;5050870;28;20090;-75
2021/07/30 00:14:44;;;;;;;12.75;8.40;;;23.70;99.90;;;;;;5042498;28;20485;-75
2021/07/30 00:17:10;;;;;;;9.75;7.85;;;23.70;99.90;;;;;;5034595;28;20025;-75
2021/07/30 00:19:35;;;;;;;16.55;7.78;;;23.60;99.90;;;;;;5034570;28;20018;-75
2021/07/30 00:22:01;;;;;;;11.95;6.93;;;23.60;99.90;;;;;;5034693;28;20030;-75
2021/07/30 00:24:27;;;;;;;10.73;7.28;;;23.60;99.90;;;;;;5034514;28;20068;-75
2021/07/30 00:26:53;;;;;;;7.75;6.68;;;23.60;99.90;;;;;;5046324;28;20017;-75
2021/07/30 00:29:18;;;;;;;11.82;8.07;;;23.60;99.90;;;;;;5036400;28;20439;-75
2021/07/30 00:31:44;;;;;;;13.05;7.22;;;23.60;99.90;;;;;;5054384;28;20079;-75
2021/07/30 00:34:10;;;;;;;10.85;7.28;;;23.60;99.90;;;;;;5054441;28;20033;-75
2021/07/30 00:36:35;;;;;;;12.68;7.55;;;23.50;99.90;;;;;;5054134;28;20024;-75
2021/07/30 00:39:01;;;;;;;7.50;6.65;;;23.50;99.90;;;;;;5053659;28;20049;-75
2021/07/30 00:41:27;;;;;;;7.55;6.60;;;23.50;99.90;;;;;;5054118;28;20025;-75
2021/07/30 00:43:53;;;;;;;11.18;7.65;;;23.40;99.90;;;;;;5054252;28;20263;-75
2021/07/30 00:46:19;;;;;;;9.80;6.95;;;23.40;99.90;;;;;;5054028;28;20103;-75
2021/07/30 00:48:45;;;;;;;14.27;7.05;;;23.40;99.90;;;;;;5053986;28;20461;-75
2021/07/30 00:51:12;;;;;;;9.13;7.13;;;23.30;99.90;;;;;;5054024;28;20028;-76
2021/07/30 00:57:01;;;;;;;12.05;7.20;;;23.40;99.90;;;;;;5055145;28;20110;-75
2021/07/30 00:59:27;;;;;;;12.27;6.97;;;23.30;99.90;;;;;;5054377;28;20477;-75
2021/07/30 01:01:53;;;;;;;12.15;8.05;;;23.30;99.90;;;;;;5055038;28;20029;-75
2021/07/30 01:04:19;;;;;;;10.27;7.15;;;23.30;99.90;;;;;;5054835;28;20029;-75
2021/07/30 01:06:45;;;;;;;10.65;6.70;;;23.30;99.90;;;;;;5053483;28;20031;-75
2021/07/30 01:09:11;;;;;;;12.18;7.00;;;23.30;99.90;;;;;;5035195;28;20796;-75
2021/07/30 01:11:37;;;;;;;7.93;6.75;;;23.30;99.90;;;;;;5053261;28;20025;-75
2021/07/30 01:14:03;;;;;;;8.30;7.07;;;23.20;99.90;;;;;;5035622;28;20068;-75
2021/07/30 01:16:29;;;;;;;9.95;7.25;;;23.20;99.90;;;;;;5053275;28;20031;-75
2021/07/30 01:18:54;;;;;;;9.18;7.30;;;23.20;99.90;;;;;;5035409;28;20036;-75
2021/07/30 01:21:23;;;;;;;7.47;6.68;;;23.20;99.90;;;;;;5053156;28;20028;-75
2021/07/30 01:23:50;;;;;;;8.00;7.20;;;23.10;99.90;;;;;;5053097;28;20025;-75
2021/07/30 01:26:17;;;;;;;7.53;6.72;;;23.10;99.90;;;;;;5052765;28;20111;-75
2021/07/30 01:28:43;;;;;;;8.98;7.18;;;23.10;99.90;;;;;;5053001;28;20029;-75
2021/07/30 01:31:09;;;;;;;9.50;6.75;;;23.10;99.90;;;;;;5053052;28;20025;-75
2021/07/30 01:33:35;;;;;;;11.68;7.65;;;23.10;99.90;;;;;;5053176;28;20444;-75
2021/07/30 01:36:01;;;;;;;10.00;7.15;;;23.10;99.90;;;;;;5052939;28;20057;-75
2021/07/30 01:38:27;;;;;;;8.27;7.07;;;23.10;99.90;;;;;;5052229;28;20083;-75
2021/07/30 01:40:52;;;;;;;10.38;6.72;;;23.10;99.90;;;;;;5052995;28;20033;-75
2021/07/30 01:43:18;;;;;;;10.50;7.72;;;23.10;99.90;;;;;;5052823;28;20484;-75
2021/07/30 01:45:44;;;;;;;11.25;7.68;;;23.10;99.90;;;;;;5052800;28;20029;-75
2021/07/30 01:48:09;;;;;;;9.63;7.70;;;23.10;99.90;;;;;;5052693;28;20104;-75
2021/07/30 01:50:35;;;;;;;11.60;7.55;;;23.10;99.90;;;;;;5034907;28;20029;-75
2021/07/30 01:53:01;;;;;;;8.50;7.38;;;23.10;99.90;;;;;;5052716;28;20056;-75
2021/07/30 01:55:27;;;;;;;8.18;7.32;;;23.10;99.90;;;;;;5052472;28;20678;-75
2021/07/30 01:57:53;;;;;;;8.10;7.22;;;23.00;99.90;;;;;;5052367;28;20056;-75
2021/07/30 02:00:18;;;;;;;9.15;7.20;;;23.00;99.90;;;;;;5052393;28;20432;-75
2021/07/30 02:02:44;;;;;;;11.02;7.60;;;23.00;99.90;;;;;;5052584;28;20465;-75
2021/07/30 02:05:10;;;;;;;9.25;8.05;;;23.00;99.90;;;;;;5052869;28;20024;-75
2021/07/30 02:07:37;;;;;;;9.50;7.63;;;23.00;99.90;;;;;;5053242;28;20033;-75
2021/07/30 02:10:07;;;;;;;8.40;7.05;;;22.90;99.90;;;;;;5053183;28;20481;-75
2021/07/30 02:15:19;;;;;;;14.20;7.70;;;23.00;99.90;;;;;;5052758;28;20043;-75
2021/07/30 02:17:45;;;;;;;15.43;7.85;;;23.00;99.90;;;;;;5015393;28;20538;-75
2021/07/30 02:20:10;;;;;;;10.82;7.68;;;23.00;99.90;;;;;;5033106;28;20021;-75
2021/07/30 02:22:36;;;;;;;8.45;7.32;;;22.90;99.90;;;;;;5033121;28;20021;-75
2021/07/30 02:25:02;;;;;;;12.27;7.05;;;22.90;99.90;;;;;;5033454;28;20062;-75
2021/07/30 02:27:28;;;;;;;10.85;6.90;;;22.90;99.90;;;;;;5033277;28;20366;-75
2021/07/30 02:29:53;;;;;;;9.40;7.15;;;22.90;99.90;;;;;;5033160;28;20476;-75
2021/07/30 02:32:19;;;;;;;8.55;7.50;;;22.80;99.90;;;;;;5032544;28;20053;-75
2021/07/30 02:34:45;;;;;;;11.93;6.57;;;22.90;99.90;;;;;;5032333;28;20036;-75
2021/07/30 02:37:11;;;;;;;8.15;7.22;;;22.90;99.90;;;;;;5032500;28;20028;-75
2021/07/30 02:39:36;;;;;;;9.38;7.63;;;22.90;99.90;;;;;;5032148;28;20412;-75
2021/07/30 02:42:02;;;;;;;17.08;7.97;;;22.90;99.90;;;;;;5018997;28;20436;-75
2021/07/30 02:44:28;;;;;;;11.65;7.20;;;22.80;99.90;;;;;;5052201;28;20017;-75
2021/07/30 02:46:53;;;;;;;12.45;7.53;;;22.80;99.90;;;;;;5034494;28;20033;-75
2021/07/30 02:49:19;;;;;;;12.57;7.68;;;22.70;99.90;;;;;;5051892;28;20079;-75
2021/07/30 02:51:45;;;;;;;15.73;7.97;;;22.70;99.90;;;;;;5051972;28;20021;-76
2021/07/30 02:54:10;;;;;;;9.90;7.43;;;22.70;99.90;;;;;;5051869;28;20063;-75
2021/07/30 02:56:36;;;;;;;10.48;7.95;;;22.80;99.90;;;;;;5051872;28;20048;-75
2021/07/30 02:59:02;;;;;;;8.38;7.55;;;22.80;99.90;;;;;;5050987;28;20013;-76
2021/07/30 03:01:28;;;;;;;11.60;7.65;;;22.80;99.90;;;;;;5033788;28;20107;-75
2021/07/30 03:03:53;;;;;;;12.27;7.72;;;22.80;99.90;;;;;;5051426;28;20055;-75
2021/07/30 03:06:19;;;;;;;10.07;7.63;;;22.80;99.90;;;;;;5051458;28;20040;-75
2021/07/30 03:08:45;;;;;;;16.02;8.40;;;22.80;99.90;;;;;;5051460;28;20078;-75
2021/07/30 03:11:11;;;;;;;11.93;7.68;;;22.80;99.90;;;;;;5051676;28;20373;-75
2021/07/30 03:13:36;;;;;;;10.13;7.05;;;22.80;99.90;;;;;;5033504;28;20404;-75
2021/07/30 03:16:03;;;;;;;10.98;7.25;;;22.80;99.90;;;;;;5051152;28;20031;-75
2021/07/30 03:18:29;;;;;;;14.65;8.05;;;22.80;99.90;;;;;;5033424;28;20073;-76
2021/07/30 03:20:55;;;;;;;10.68;7.65;;;22.80;99.90;;;;;;5051490;28;20099;-75
2021/07/30 03:23:21;;;;;;;10.85;7.65;;;22.80;99.90;;;;;;5051455;28;20028;-75
2021/07/30 03:25:46;;;;;;;8.25;7.47;;;22.80;99.90;;;;;;5051475;28;20446;-75
2021/07/30 03:28:12;;;;;;;15.23;6.95;;;22.80;99.90;;;;;;5051257;28;20032;-75
2021/07/30 03:30:38;;;;;;;13.23;7.55;;;22.80;99.90;;;;;;5051367;28;20520;-75
2021/07/30 03:33:04;;;;;;;10.05;7.65;;;22.80;99.90;;;;;;5050948;28;20492;-75
2021/07/30 03:35:30;;;;;;;11.95;8.25;;;22.70;99.90;;;;;;5051399;28;20379;-75
2021/07/30 03:37:55;;;;;;;13.00;8.10;;;22.60;99.90;;;;;;5050548;28;20041;-75
2021/07/30 03:40:21;;;;;;;12.65;8.05;;;22.60;99.90;;;;;;5051283;28;20465;-75
2021/07/30 03:42:47;;;;;;;12.40;7.65;;;22.60;99.90;;;;;;5051317;28;20476;-75
2021/07/30 03:45:13;;;;;;;10.95;7.45;;;22.50;99.90;;;;;;5051271;28;20056;-75
2021/07/30 03:47:38;;;;;;;10.68;7.45;;;22.60;99.90;;;;;;5051458;28;20444;-75
2021/07/30 03:50:04;;;;;;;13.55;8.15;;;22.60;99.90;;;;;;5055156;28;20029;-75
2021/07/30 03:52:30;;;;;;;9.15;7.95;;;22.60;99.90;;;;;;5037340;28;20619;-75
2021/07/30 03:54:56;;;;;;;11.30;7.78;;;22.60;99.90;;;;;;5055225;28;20021;-75
2021/07/30 03:57:21;;;;;;;9.38;7.68;;;22.60;99.90;;;;;;5054814;28;20464;-75
2021/07/30 03:59:47;;;;;;;10.93;7.40;;;22.60;99.90;;;;;;5036414;28;20040;-75
2021/07/30 04:02:17;;;;;;;13.68;8.30;;;22.60;99.90;;;;;;5054735;28;20429;-75
2021/07/30 04:04:43;;;;;;;9.00;7.57;;;22.60;99.90;;;;;;5054649;28;20044;-75
2021/07/30 04:07:08;;;;;;;11.18;7.97;;;22.50;99.90;;;;;;5054666;28;20155;-75
2021/07/30 04:09:34;;;;;;;12.15;7.28;;;22.50;99.90;;;;;;5054877;28;20032;-75
2021/07/30 04:12:00;;;;;;;13.82;9.05;;;22.50;99.90;;;;;;5054960;28;20534;-75
2021/07/30 04:14:25;;;;;;;10.55;7.68;;;22.40;99.90;;;;;;5054692;28;20024;-75
2021/07/30 04:16:51;;;;;;;12.10;8.30;;;22.50;99.90;;;;;;5054374;28;20021;-75
2021/07/30 04:19:17;;;;;;;12.68;8.27;;;22.50;99.90;;;;;;5054518;28;20615;-75
2021/07/30 04:21:43;;;;;;;12.05;8.23;;;22.50;99.90;;;;;;5054680;28;20071;-75
2021/07/30 04:24:08;;;;;;;9.77;7.50;;;22.60;99.90;;;;;;5036646;28;20025;-75
2021/07/30 04:26:34;;;;;;;13.38;8.60;;;22.60;99.90;;;;;;5054475;28;20024;-75
2021/07/30 04:29:00;;;;;;;12.93;8.07;;;22.60;99.90;;;;;;5054454;28;20025;-75
2021/07/30 04:31:28;;;;;;;11.05;8.05;;;22.60;99.90;;;;;;5036598;28;20033;-76
2021/07/30 04:33:54;;;;;;;10.90;8.65;;;22.50;99.90;;;;;;5054377;28;20451;-75
2021/07/30 04:36:20;;;;;;;10.00;8.18;;;22.60;99.90;;;;;;5054190;28;20033;-75
2021/07/30 04:38:46;;;;;;;11.35;8.02;;;22.60;99.90;;;;;;5054041;28;20049;-75
2021/07/30 04:41:12;;;;;;;16.10;8.10;;;22.60;99.90;;;;;;5054305;28;20522;-75
2021/07/30 04:44:32;;;;;;;8.88;7.60;;;22.60;99.90;;;;;;5054417;28;20017;-75
2021/07/30 04:47:10;;;;;;;12.80;7.80;;;22.60;99.90;;;;;;5039605;28;20040;-75
2021/07/30 04:49:36;;;;;;;11.82;7.70;;;22.60;99.90;;;;;;5056448;28;20024;-76
2021/07/30 04:52:02;;;;;;;12.60;8.02;;;22.60;99.90;;;;;;5054932;28;20393;-76
2021/07/30 04:54:27;;;;;;;10.90;8.43;;;22.50;99.90;;;;;;5054694;28;20021;-76
2021/07/30 04:56:53;;;;;;;13.85;8.27;;;22.60;99.90;;;;;;5035470;28;20083;-76
2021/07/30 04:59:19;;;;;;;13.05;8.30;;;22.60;99.90;;;;;;5052529;28;20028;-76
2021/07/30 05:01:44;;;;;;;10.85;7.97;;;22.70;99.90;;;;;;5035789;28;20361;-76
2021/07/30 05:04:11;;;;;;;17.45;7.40;;;22.70;99.90;;;;;;5053696;28;20017;-76
2021/07/30 05:06:37;;;;;;;12.93;8.10;;;22.70;99.90;;;;;;5053624;28;20396;-76
2021/07/30 05:09:03;;;;;;;13.63;8.90;;;22.80;99.90;;;;;;5053493;28;20029;-76
2021/07/30 05:11:29;;;;;;;8.40;7.07;;;22.80;99.90;;;;;;5053120;28;20032;-76
2021/07/30 05:13:55;;;;;;;9.63;7.32;;;22.90;99.90;;;;;;5035098;28;20033;-76
2021/07/30 05:16:21;;;;;;;14.88;8.73;;;22.90;99.90;;;;;;5052397;28;20077;-76
2021/07/30 05:18:47;;;;;;;13.70;8.02;;;23.00;99.90;;;;;;5051404;28;20021;-76
2021/07/30 05:21:13;;;;;;;13.18;7.53;;;23.00;99.90;;;;;;5052297;28;20021;-76
2021/07/30 05:23:39;;;;;;;12.60;8.35;;;23.00;99.90;;;;;;5034322;28;20084;-76
2021/07/30 05:26:05;;;;;;;11.55;8.10;;;23.10;99.90;;;;;;5052366;28;20029;-76
2021/07/30 05:28:31;;;;;;;11.32;7.22;;;23.10;99.90;;;;;;5051983;28;20408;-76
2021/07/30 05:30:58;;;;;;;11.95;8.77;;;23.10;99.90;;;;;;5034693;28;20082;-76
2021/07/30 05:33:28;;;;;;;13.43;8.43;;;23.20;99.90;;;;;;5052865;28;20028;-76
2021/07/30 05:35:55;;;;;;;11.70;7.93;;;23.20;99.90;;;;;;5052746;28;20056;-76
2021/07/30 05:38:21;;;;;;;11.73;8.43;;;23.30;99.90;;;;;;5052607;28;20161;-76
2021/07/30 05:40:47;;;;;;;17.50;7.95;;;23.30;99.90;;;;;;5034911;28;20029;-76
2021/07/30 05:43:13;;;;;;;11.20;7.95;;;23.40;99.90;;;;;;5052957;28;20025;-76
2021/07/30 05:45:39;;;;;;;10.82;8.25;;;23.40;99.90;;;;;;5052564;28;20083;-76
2021/07/30 05:48:05;;;;;;;10.05;8.20;;;23.50;99.90;;;;;;5052706;28;20025;-76
2021/07/30 05:50:31;;;;;;;14.82;8.55;;;23.60;99.90;;;;;;5052712;28;20043;-76
2021/07/30 05:52:56;;;;;;;13.40;8.07;;;23.60;99.90;;;;;;5052432;28;20039;-76
2021/07/30 05:55:22;;;;;;;10.50;7.50;;;23.70;99.90;;;;;;5052588;28;20082;-76
2021/07/30 05:57:48;;;;;;;10.35;8.32;;;23.70;99.90;;;;;;5052682;28;20091;-76
2021/07/30 06:00:14;;;;;;;8.63;7.72;;;23.70;99.90;;;;;;5052424;28;20053;-76
2021/07/30 06:02:39;;;;;;;13.73;7.80;;;23.80;99.90;;;;;;5052496;28;20021;-76
2021/07/30 06:05:06;;;;;;;10.70;8.38;;;23.80;99.90;;;;;;5034514;28;20032;-76
2021/07/30 06:07:32;;;;;;;10.85;8.13;;;23.90;99.90;;;;;;5051757;28;20494;-76
2021/07/30 06:09:58;;;;;;;13.20;8.05;;;23.90;99.90;;;;;;5051981;28;20103;-76
2021/07/30 06:12:24;;;;;;;9.00;7.40;;;24.00;99.90;;;;;;5052147;28;20032;-76
2021/07/30 06:14:50;;;;;;;15.05;7.40;;;24.00;99.90;;;;;;5052235;28;20057;-76
2021/07/30 06:17:16;;;;;;;9.20;7.20;;;24.10;99.90;;;;;;5052020;28;20021;-76
2021/07/30 06:19:42;;;;;;;10.90;7.38;;;24.10;99.90;;;;;;5051806;28;20059;-76
2021/07/30 06:22:07;;;;;;;7.47;6.72;;;24.20;99.90;;;;;;5043260;28;20094;-76
2021/07/30 06:24:37;;;;;;;10.30;7.57;;;24.20;99.90;;;;;;5049853;28;20025;-76
2021/07/30 06:27:04;;;;;;;10.68;7.72;;;24.30;99.90;;;;;;5049604;28;20234;-76
2021/07/30 06:29:30;;;;;;;9.10;8.00;;;24.40;99.90;;;;;;5049621;28;20020;-76
2021/07/30 06:31:56;;;;;;;11.23;7.50;;;24.40;99.90;;;;;;5029028;28;20028;-76
2021/07/30 06:34:21;;;;;;;8.95;8.07;;;24.50;99.90;;;;;;5031462;28;20409;-76
2021/07/30 06:36:47;;;;;;;12.30;8.60;;;24.50;99.90;;;;;;5029766;28;20041;-76
2021/07/30 06:39:13;;;;;;;11.85;7.47;;;24.60;99.90;;;;;;5047287;28;20547;-76
2021/07/30 06:41:38;;;;;;;11.52;7.65;;;24.60;99.90;;;;;;5052132;28;20044;-76
2021/07/30 06:44:04;;;;;;;11.57;7.35;;;24.70;99.90;;;;;;5045531;28;20182;-76
2021/07/30 06:46:32;;;;;;;9.05;7.10;;;24.70;99.90;;;;;;5050532;28;20025;-76
2021/07/30 06:48:57;;;;;;;10.48;7.47;;;24.80;99.90;;;;;;5046437;28;20033;-76
2021/07/30 06:51:23;;;;;;;8.13;7.28;;;24.80;99.90;;;;;;5050041;28;20064;-76
2021/07/30 06:53:49;;;;;;;9.35;7.55;;;24.90;99.90;;;;;;5032069;28;20029;-76
2021/07/30 06:56:15;;;;;;;9.70;7.60;;;24.90;99.90;;;;;;5050134;28;20017;-76
2021/07/30 06:58:41;;;;;;;12.93;8.07;;;25.00;99.90;;;;;;5049257;28;20029;-76
2021/07/30 07:01:07;;;;;;;16.42;10.40;;;25.00;99.90;;;;;;5047969;28;20052;-76
2021/07/30 07:03:33;;;;;;;21.00;9.82;;;25.10;99.90;;;;;;5031742;28;20025;-76
2021/07/30 07:05:59;;;;;;;18.50;10.40;;;25.10;99.90;;;;;;5031488;28;20116;-76
2021/07/30 07:08:25;;;;;;;14.30;10.45;;;25.20;99.90;;;;;;5049804;28;20571;-76
2021/07/30 07:10:51;;;;;;;13.38;9.68;;;25.30;99.90;;;;;;5032072;28;20059;-76
2021/07/30 07:13:17;;;;;;;15.35;10.25;;;25.30;99.90;;;;;;5050020;28;20057;-76
2021/07/30 07:15:44;;;;;;;14.70;10.80;;;25.30;99.90;;;;;;5031483;28;20079;-76
2021/07/30 07:18:10;;;;;;;16.88;10.88;;;25.40;99.90;;;;;;5055105;28;20021;-76
2021/07/30 07:20:36;;;;;;;18.52;11.40;;;25.50;99.90;;;;;;5049910;28;20017;-76
2021/07/30 07:23:02;;;;;;;19.90;12.80;;;25.50;99.90;;;;;;5030507;28;20538;-76
2021/07/30 07:25:28;;;;;;;17.58;11.80;;;25.60;99.90;;;;;;5049954;28;20037;-76
2021/07/30 07:27:54;;;;;;;17.00;12.20;;;25.60;99.90;;;;;;5049742;28;20112;-76
2021/07/30 07:30:19;;;;;;;20.27;12.35;;;25.70;99.90;;;;;;5049441;28;20037;-76
2021/07/30 07:32:46;;;;;;;18.83;12.82;;;25.80;99.90;;;;;;5046209;28;20431;-76
2021/07/30 07:35:12;;;;;;;19.95;14.55;;;25.80;99.90;;;;;;5045213;28;20098;-76
2021/07/30 07:37:37;;;;;;;20.50;13.75;;;25.90;99.90;;;;;;5048893;28;20477;-76
2021/07/30 07:40:05;;;;;;;22.15;12.60;;;25.90;99.90;;;;;;5048992;28;20385;-76
2021/07/30 07:42:31;;;;;;;17.70;12.65;;;26.00;99.90;;;;;;5049541;28;20018;-76
2021/07/30 07:44:57;;;;;;;18.95;12.13;;;26.10;99.90;;;;;;5047485;28;20029;-76
2021/07/30 07:47:23;;;;;;;22.33;12.65;;;26.20;99.90;;;;;;5048398;28;20029;-76
2021/07/30 07:49:48;;;;;;;18.73;12.77;;;26.20;99.90;;;;;;5048164;28;20024;-76
2021/07/30 07:52:14;;;;;;;21.98;12.95;;;26.30;99.90;;;;;;5045235;28;20025;-76
2021/07/30 07:54:40;;;;;;;19.70;11.52;;;26.30;99.90;;;;;;5048205;28;20188;-76
2021/07/30 07:57:06;;;;;;;25.05;14.02;;;26.40;99.90;;;;;;5048880;28;20021;-76
2021/07/30 07:59:36;;;;;;;18.90;13.38;;;26.40;99.90;;;;;;5048827;28;20022;-76
2021/07/30 08:02:06;;;;;;;21.58;13.05;;;26.40;99.90;;;;;;5048546;28;20060;-76
2021/07/30 08:04:32;;;;;;;19.15;12.07;;;26.50;99.90;;;;;;5031415;28;20028;-76
2021/07/30 08:07:00;;;;;;;20.02;13.20;;;26.50;99.90;;;;;;5046634;28;20029;-76
2021/07/30 08:09:25;;;;;;;18.08;12.45;;;26.50;99.90;;;;;;5048715;28;20093;-76
2021/07/30 08:11:51;;;;;;;12.63;10.43;;;26.60;99.90;;;;;;5049495;28;20025;-76
2021/07/30 08:14:17;;;;;;;18.58;11.68;;;26.60;99.90;;;;;;5031250;28;20021;-76
2021/07/30 08:16:45;;;;;;;16.55;12.05;;;26.60;99.90;;;;;;5049809;28;20090;-76
2021/07/30 08:19:11;;;;;;;18.50;10.90;;;26.60;99.90;;;;;;5048084;28;20104;-76
2021/07/30 08:21:37;;;;;;;15.88;10.50;;;26.60;99.90;;;;;;5048803;28;20113;-76
2021/07/30 08:24:03;;;;;;;18.42;11.55;;;26.60;99.90;;;;;;5048335;28;20115;-76
2021/07/30 08:26:29;;;;;;;16.42;11.15;;;26.70;99.90;;;;;;5047128;28;20053;-76
2021/07/30 08:28:55;;;;;;;19.67;11.65;;;26.80;99.90;;;;;;5048285;28;20428;-76
2021/07/30 08:31:27;;;;;;;17.27;10.90;;;26.80;99.90;;;;;;5027349;28;20024;-76
2021/07/30 08:33:53;;;;;;;18.33;10.80;;;26.80;99.90;;;;;;5046359;28;20052;-77
2021/07/30 08:36:19;;;;;;;13.25;9.85;;;26.80;99.60;;;;;;5053084;28;20495;-75
2021/07/30 08:39:35;;;;;;;12.93;9.13;;;26.90;99.90;;;;;;5054590;28;20106;-76
2021/07/30 08:42:03;;;;;;;11.38;8.15;;;26.80;98.40;;;;;;5053209;28;20067;-75
2021/07/30 08:44:29;;;;;;;10.93;8.73;;;26.80;99.40;;;;;;5053720;28;20091;-75
2021/07/30 08:46:55;;;;;;;13.50;8.05;;;26.80;99.30;;;;;;5054281;28;20013;-75
2021/07/30 08:49:21;;;;;;;13.70;8.05;;;26.90;97.80;;;;;;5051981;28;20029;-75
2021/07/30 08:51:50;;;;;;;11.50;7.95;;;27.00;98.20;;;;;;5052181;28;20059;-75
2021/07/30 08:54:16;;;;;;;16.58;8.55;;;27.00;99.30;;;;;;5048326;28;20029;-75
2021/07/30 08:56:42;;;;;;;10.60;7.35;;;27.10;98.70;;;;;;5051120;28;20040;-75
2021/07/30 08:59:08;;;;;;;10.93;7.60;;;27.20;97.90;;;;;;5033975;28;20033;-75
2021/07/30 09:01:35;;;;;;;9.75;7.38;;;27.20;96.80;;;;;;5051346;28;20025;-75
2021/07/30 09:04:01;;;;;;;10.80;7.88;;;27.30;97.90;;;;;;5050699;28;20052;-75
2021/07/30 09:06:26;;;;;;;14.52;7.80;;;27.30;98.40;;;;;;5046337;28;20472;-75
2021/07/30 09:09:01;;;;;;;11.77;7.65;;;27.40;99.60;;;;;;5052294;28;20465;-75
2021/07/30 09:11:38;;;;;;;14.00;8.45;;;27.50;99.70;;;;;;5051666;28;20029;-75
2021/07/30 09:14:08;;;;;;;10.95;7.40;;;27.60;98.90;;;;;;5052273;28;20117;-75
2021/07/30 09:16:51;;;;;;;10.27;7.07;;;27.80;99.50;;;;;;5039265;28;20031;-75
2021/07/30 09:19:18;;;;;;;10.60;6.68;;;27.90;97.10;;;;;;5051928;28;20017;-75
2021/07/30 09:21:44;;;;;;;7.18;6.25;;;28.00;96.10;;;;;;5048249;28;20018;-75
2021/07/30 09:24:15;;;;;;;8.05;6.03;;;27.90;95.90;;;;;;5051546;28;20036;-75
2021/07/30 09:26:53;;;;;;;9.00;6.80;;;28.00;95.80;;;;;;5052067;28;20027;-75
2021/07/30 09:29:20;;;;;;;8.48;5.95;;;28.10;95.30;;;;;;5051463;28;20079;-76
2021/07/30 09:31:51;;;;;;;11.27;6.18;;;28.10;95.10;;;;;;5052027;28;20032;-75
2021/07/30 09:34:32;;;;;;;6.65;5.90;;;28.10;95.20;;;;;;5051953;28;20091;-75
2021/07/30 09:37:19;;;;;;;8.10;6.80;;;28.20;95.70;;;;;;5044451;28;20021;-75
2021/07/30 09:39:47;;;;;;;9.35;6.57;;;28.30;95.60;;;;;;5050790;28;20091;-75
2021/07/30 09:42:20;;;;;;;9.65;6.93;;;28.30;95.50;;;;;;5039991;28;20461;-75
2021/07/30 09:44:49;;;;;;;12.45;6.30;;;28.20;94.90;;;;;;5022661;28;20102;-75
2021/07/30 09:47:17;;;;;;;10.55;6.38;;;28.30;95.00;;;;;;5039840;28;20057;-75
2021/07/30 09:49:47;;;;;;;11.23;6.40;;;28.40;93.90;;;;;;5047655;28;20104;-75
2021/07/30 09:52:25;;;;;;;10.43;7.55;;;28.40;94.10;;;;;;5048458;28;20028;-75
2021/07/30 09:54:58;;;;;;;9.85;6.22;;;28.30;93.60;;;;;;5040305;28;20060;-75
2021/07/30 09:57:46;;;;;;;9.90;5.97;;;28.40;94.50;;;;;;5043814;28;20066;-75
2021/07/30 10:00:15;;;;;;;6.60;5.93;;;28.40;94.20;;;;;;5026361;28;20025;-75
2021/07/30 10:02:46;;;;;;;10.23;5.82;;;28.40;93.80;;;;;;5048212;28;20099;-75
2021/07/30 10:05:15;;;;;;;10.63;6.28;;;28.50;93.00;;;;;;5032572;28;20116;-75
2021/07/30 10:07:41;;;;;;;11.20;6.10;;;28.50;92.30;;;;;;5047930;28;20036;-75
2021/07/30 10:12:41;;;;;;;6.35;5.75;;;28.60;92.90;;;;;;5044657;28;20404;-75
2021/07/30 10:15:08;;;;;;;7.53;5.82;;;28.60;93.00;;;;;;5036768;28;20091;-75
2021/07/30 10:17:36;;;;;;;9.70;6.05;;;28.70;92.70;;;;;;5047513;28;20032;-75
2021/07/30 10:20:03;;;;;;;6.18;5.57;;;28.80;93.60;;;;;;5050642;28;20103;-75
2021/07/30 10:22:53;;;;;;;8.00;6.30;;;28.90;93.00;;;;;;5048321;28;20021;-75
2021/07/30 10:25:38;;;;;;;6.03;5.47;;;28.90;91.90;;;;;;5041297;28;20041;-75
2021/07/30 10:28:06;;;;;;;5.97;5.03;;;29.00;91.50;;;;;;5045883;28;20115;-75
2021/07/30 10:30:50;;;;;;;7.25;5.68;;;29.00;90.60;;;;;;5040262;28;20017;-75
2021/07/30 10:33:40;;;;;;;5.68;5.05;;;29.00;90.40;;;;;;5041906;28;20040;-75
2021/07/30 10:36:12;;;;;;;7.55;5.30;;;28.90;90.60;;;;;;5038948;28;20017;-75
2021/07/30 10:38:38;;;;;;;8.35;5.20;;;28.90;90.10;;;;;;5048755;28;20041;-75
2021/07/30 10:41:06;;;;;;;5.85;5.35;;;29.00;90.40;;;;;;5047390;28;20078;-75
2021/07/30 10:43:52;;;;;;;8.13;5.25;;;29.00;91.20;;;;;;5045151;28;20064;-75
2021/07/30 10:46:19;;;;;;;5.43;4.93;;;29.00;90.40;;;;;;5046466;28;20042;-75
2021/07/30 10:48:46;;;;;;;12.88;5.57;;;29.00;90.60;;;;;;5041152;28;20053;-75
2021/07/30 10:51:18;;;;;;;6.03;5.13;;;29.10;90.70;;;;;;5036304;28;20484;-75
2021/07/30 10:53:49;;;;;;;10.30;5.65;;;29.10;91.00;;;;;;5017386;28;20120;-75
2021/07/30 10:56:17;;;;;;;8.77;5.28;;;29.10;90.80;;;;;;5043316;28;20053;-74
2021/07/30 10:58:43;;;;;;;6.43;5.18;;;29.20;90.70;;;;;;5029095;28;20025;-75
2021/07/30 11:01:11;;;;;;;5.78;5.25;;;29.30;90.90;;;;;;5041207;28;20105;-75
2021/07/30 11:03:52;;;;;;;6.35;5.75;;;29.30;89.10;;;;;;5049112;28;20504;-75
2021/07/30 11:06:22;;;;;;;7.25;5.97;;;29.50;88.80;;;;;;5045692;28;20033;-75
2021/07/30 11:09:03;;;;;;;8.40;5.40;;;29.60;89.90;;;;;;5048210;28;20500;-75
2021/07/30 11:11:39;;;;;;;7.35;5.32;;;29.70;90.70;;;;;;5046392;28;20040;-75
2021/07/30 11:14:16;;;;;;;7.65;5.32;;;29.70;90.60;;;;;;5048933;28;20477;-76
2021/07/30 11:16:45;;;;;;;6.75;5.32;;;29.80;90.70;;;;;;5038967;28;20018;-76
2021/07/30 11:19:12;;;;;;;5.82;5.28;;;29.80;88.60;;;;;;5043320;28;20025;-76
2021/07/30 11:21:38;;;;;;;5.65;5.15;;;29.70;89.50;;;;;;5048575;28;20032;-76
2021/07/30 11:24:08;;;;;;;8.77;5.03;;;29.70;90.10;;;;;;5046087;28;20036;-76
2021/07/30 11:26:37;;;;;;;7.45;5.57;;;29.80;90.60;;;;;;5039930;28;20028;-76
2021/07/30 11:29:12;;;;;;;5.60;5.10;;;29.80;90.20;;;;;;5045346;28;20056;-76
2021/07/30 11:32:05;;;;;;;9.20;5.88;;;29.90;91.00;;;;;;5016572;28;20393;-76
2021/07/30 11:34:31;;;;;;;7.40;5.65;;;29.90;88.20;;;;;;5044667;28;20025;-76
2021/07/30 11:37:03;;;;;;;6.55;5.65;;;29.90;88.90;;;;;;5047165;28;20032;-76
2021/07/30 11:39:32;;;;;;;;;;;30.00;89.50;;;;;;5041550;28;20076;-76
2021/07/30 11:41:58;;;;;;;9.02;5.88;;;30.00;90.10;;;;;;5023180;28;19909;-76
2021/07/30 11:44:25;;;;;;;6.78;5.53;;;30.00;90.50;;;;;;5024549;28;20484;-76
2021/07/30 11:46:58;;;;;;;7.78;5.05;;;30.20;91.30;;;;;;5042888;28;20025;-76
2021/07/30 11:49:33;;;;;;;8.73;6.30;;;30.30;90.40;;;;;;5040317;28;20502;-76
2021/07/30 11:52:00;;;;;;;7.20;4.93;;;30.40;90.80;;;;;;5042068;28;20037;-76
2021/07/30 11:54:27;;;;;;;7.43;4.82;;;30.50;90.00;;;;;;5041561;28;20021;-76
2021/07/30 11:56:54;;;;;;;13.00;5.78;;;30.60;89.10;;;;;;5040018;28;20107;-76
2021/07/30 11:59:20;;;;;;;5.50;4.97;;;30.60;89.30;;;;;;5040008;28;20068;-76
2021/07/30 12:02:05;;;;;;;10.70;5.68;;;30.60;84.90;;;;;;5022451;28;20057;-76
2021/07/30 12:04:34;;;;;;;7.35;6.40;;;30.60;87.00;;;;;;5040801;28;20013;-76
2021/07/30 12:07:14;;;;;;;6.85;5.85;;;30.60;86.80;;;;;;5039053;28;20040;-76
2021/07/30 12:09:41;;;;;;;7.22;5.70;;;30.50;87.70;;;;;;5040220;28;20022;-76
2021/07/30 12:12:12;;;;;;;6.50;5.88;;;30.40;88.30;;;;;;5045847;28;20017;-76
2021/07/30 12:14:38;;;;;;;7.05;5.95;;;30.50;88.70;;;;;;5042538;28;20099;-76
2021/07/30 12:17:06;;;;;;;6.22;5.63;;;30.30;87.60;;;;;;5028423;28;20163;-76
2021/07/30 12:19:34;;;;;;;8.60;6.25;;;30.30;87.80;;;;;;5047490;28;20024;-76
2021/07/30 12:22:04;;;;;;;13.35;6.80;;;30.30;88.20;;;;;;5044432;28;20021;-76
2021/07/30 12:24:31;;;;;;;6.78;6.05;;;30.20;88.90;;;;;;5029336;28;20021;-76
2021/07/30 12:26:57;;;;;;;7.05;5.60;;;30.20;88.10;;;;;;5040494;28;20044;-76
2021/07/30 12:29:43;;;;;;;6.10;5.47;;;30.30;89.30;;;;;;5047824;28;20029;-75
2021/07/30 12:32:14;;;;;;;9.50;6.97;;;30.30;88.50;;;;;;5032933;28;20025;-76
2021/07/30 12:34:51;;;;;;;5.20;4.80;;;30.30;88.60;;;;;;5041142;28;20030;-76
2021/07/30 12:37:17;;;;;;;6.30;5.60;;;30.20;89.40;;;;;;5027435;28;20029;-76
2021/07/30 12:39:45;;;;;;;9.50;5.68;;;30.20;89.00;;;;;;5037412;28;20041;-76
2021/07/30 12:42:30;;;;;;;6.90;5.88;;;30.10;89.50;;;;;;5034466;28;20022;-76
2021/07/30 12:44:59;;;;;;;10.40;6.22;;;30.00;88.00;;;;;;5032569;28;20025;-76
2021/07/30 12:47:25;;;;;;;6.32;5.63;;;30.00;90.00;;;;;;5027532;28;20036;-76
2021/07/30 12:49:52;;;;;;;7.40;6.32;;;29.90;90.40;;;;;;5029760;28;20026;-76
2021/07/30 12:52:18;;;;;;;7.63;5.90;;;29.80;90.90;;;;;;5028884;28;20021;-76